Terminal Aerodrome Forecast
Issued by NWS Cleveland, OH

Home | Current Version | Previous Version | Text Only | Print | Product List | Glossary Off
Versions: 1 2 3 4 5 6 7 8 9 10 11 12 13 14 15 16 17 18 19

000
FTUS41 KCLE 240500
TAFCAK
TAF
KCAK 240536Z 2406/2506 14010KT P6SM SCT015 OVC040
      TEMPO 2406/2409 5SM -RA BR
     FM240900 14007KT 3SM -RA BR OVC015
     FM241400 16012KT 5SM -RA BR OVC004
     FM241900 18015G25KT P6SM -SHRA OVC012
     FM242300 23025G40KT P6SM OVC025=

USA.gov is the U.S. government's official web portal to all federal, state and local government web resources and services.